Iglesia, Argentina
Current Conditions -  °F | °C
As of 1:00 AM on Sunday 26 Oct 2014 (Local Time) from SCSE Reporting Station
NA  
Wind Chill: 57°   Ceiling: NA
Heat Index: 57°   Visibility: NA
Dew Point: 54°   Wind: 1mph
Humidity: 88%   Direction: NA
Pressure: 30"   Gusts: NA
Location:  30.17°S, 69.21°W
Report Text: SCSE 260400Z AUTO VRB01KT //// // ////// 14/12 Q1016
Loading
Personal Weather Stations






























Interactive Weather Map New forecast layout! Learn more

10-Day Weather Forecast

Advertisements
Track Severe Weather on mobile